Time;durP1;ratioP1;P1;durP2;ratioP2;P2;SDS_P1;SDS_P2;PMS_P1;PMS_P2;Temp;Humidity;BMP_temperature;BMP_pressure;BME280_temperature;BME280_humidity;BME280_pressure;Samples;Min_cycle;Max_cycle;Signal;HPM_P1;HPM_P2
2021/12/03 00:02:06;;;;;;;0.00;0.00;;;2.70;99.90;;;;;;5052095;28;20072;-83
2021/12/03 00:04:31;;;;;;;0.20;0.20;;;2.70;99.90;;;;;;5052376;28;20032;-84
2021/12/03 00:06:57;;;;;;;0.25;0.25;;;2.60;99.90;;;;;;5052207;28;20489;-84
2021/12/03 00:09:23;;;;;;;0.32;0.32;;;2.60;99.90;;;;;;5052078;28;20033;-84
2021/12/03 00:11:49;;;;;;;12.68;1.00;;;2.50;99.90;;;;;;5050291;28;20029;-83
2021/12/03 00:14:15;;;;;;;0.00;0.00;;;2.50;99.90;;;;;;5052623;28;20025;-84
2021/12/03 00:16:40;;;;;;;1.50;1.15;;;2.40;99.90;;;;;;5052470;28;20078;-84
2021/12/03 00:19:06;;;;;;;0.08;0.08;;;2.40;99.90;;;;;;5050903;28;20021;-83
2021/12/03 00:21:32;;;;;;;0.10;0.10;;;2.40;99.90;;;;;;5052265;28;20023;-84
2021/12/03 00:23:58;;;;;;;0.00;0.00;;;2.30;99.90;;;;;;5052209;28;20033;-83
2021/12/03 00:26:24;;;;;;;0.15;0.15;;;2.30;99.90;;;;;;5051892;28;20508;-84
2021/12/03 00:28:50;;;;;;;30.40;1.15;;;2.30;99.90;;;;;;5051715;28;20033;-84
2021/12/03 00:31:16;;;;;;;0.20;0.20;;;2.20;99.90;;;;;;5052258;28;20450;-84
2021/12/03 00:33:42;;;;;;;1.25;0.88;;;2.20;99.90;;;;;;5052091;28;20033;-83
2021/12/03 00:36:10;;;;;;;0.00;0.00;;;2.20;99.90;;;;;;5052410;28;20082;-84
2021/12/03 00:38:40;;;;;;;0.30;0.30;;;2.20;99.90;;;;;;5052327;28;20021;-83
2021/12/03 00:41:10;;;;;;;2.20;0.80;;;2.20;99.90;;;;;;5047396;28;20033;-84
2021/12/03 00:43:47;;;;;;;1.08;0.95;;;2.20;99.90;;;;;;5031464;28;20026;-83
2021/12/03 00:46:15;;;;;;;0.08;0.08;;;2.10;99.90;;;;;;5030798;28;20037;-84
2021/12/03 00:48:42;;;;;;;0.10;0.10;;;2.10;99.90;;;;;;5033381;28;20025;-83
2021/12/03 00:51:09;;;;;;;0.10;0.10;;;2.10;99.90;;;;;;5036038;28;20029;-83
2021/12/03 00:53:36;;;;;;;0.17;0.17;;;2.10;99.90;;;;;;5035809;28;20424;-84
2021/12/03 00:56:03;;;;;;;0.30;0.30;;;2.10;99.90;;;;;;5051151;28;20021;-83
2021/12/03 00:58:29;;;;;;;0.00;0.00;;;2.00;99.90;;;;;;5043849;28;20127;-83
2021/12/03 01:00:55;;;;;;;0.00;0.00;;;2.00;99.90;;;;;;5055234;28;20099;-83
2021/12/03 01:03:21;;;;;;;0.10;0.10;;;1.90;99.90;;;;;;5055274;28;20434;-84
2021/12/03 01:05:46;;;;;;;0.00;0.00;;;1.90;99.90;;;;;;5055638;28;20048;-83
2021/12/03 01:08:12;;;;;;;0.00;0.00;;;1.90;99.90;;;;;;5055297;28;20029;-84
2021/12/03 01:10:38;;;;;;;0.68;0.47;;;1.90;99.90;;;;;;5053189;28;20033;-84
2021/12/03 01:13:04;;;;;;;0.00;0.00;;;1.90;99.90;;;;;;5054910;28;20029;-83
2021/12/03 01:15:33;;;;;;;0.00;0.00;;;1.90;99.90;;;;;;5055423;28;20029;-83
2021/12/03 01:17:59;;;;;;;0.10;0.10;;;1.80;99.90;;;;;;5055208;28;20056;-84
2021/12/03 01:20:25;;;;;;;0.10;0.10;;;1.80;99.90;;;;;;5055132;28;20377;-83
2021/12/03 01:22:52;;;;;;;0.00;0.00;;;1.70;99.90;;;;;;5053840;28;20111;-84
2021/12/03 01:25:20;;;;;;;0.32;0.32;;;1.70;99.90;;;;;;5055046;28;20044;-84
2021/12/03 01:27:47;;;;;;;0.30;0.15;;;1.70;99.90;;;;;;5055040;28;20096;-83
2021/12/03 01:30:14;;;;;;;0.65;0.43;;;1.70;99.90;;;;;;5054975;28;20021;-84
2021/12/03 01:32:40;;;;;;;0.17;0.17;;;1.70;99.90;;;;;;5054900;28;20104;-83
2021/12/03 01:35:07;;;;;;;0.03;0.03;;;1.70;99.90;;;;;;5054673;28;20109;-83
2021/12/03 01:37:33;;;;;;;1.02;0.47;;;1.60;99.90;;;;;;5054779;28;20017;-84
2021/12/03 01:39:59;;;;;;;0.00;0.00;;;1.50;99.90;;;;;;5044854;28;20029;-84
2021/12/03 01:42:25;;;;;;;0.00;0.00;;;1.50;99.90;;;;;;5035047;28;20029;-84
2021/12/03 01:44:50;;;;;;;0.98;0.60;;;1.50;99.90;;;;;;5034039;28;20029;-84
2021/12/03 01:47:16;;;;;;;1.80;1.05;;;1.50;99.90;;;;;;5034945;28;20028;-83
2021/12/03 01:49:42;;;;;;;0.00;0.00;;;1.40;99.90;;;;;;5034729;28;20120;-83
2021/12/03 01:52:07;;;;;;;0.20;0.20;;;1.40;99.90;;;;;;5034496;28;20029;-83
2021/12/03 01:54:33;;;;;;;0.10;0.10;;;1.40;99.90;;;;;;5034872;28;20033;-83
2021/12/03 01:56:59;;;;;;;0.00;0.00;;;1.40;99.90;;;;;;5034748;28;20033;-84
2021/12/03 01:59:25;;;;;;;0.00;0.00;;;1.40;99.90;;;;;;5051046;28;20029;-84
2021/12/03 02:01:51;;;;;;;0.00;0.00;;;1.30;99.90;;;;;;5053062;28;20095;-83
2021/12/03 02:04:16;;;;;;;0.43;0.35;;;1.30;99.90;;;;;;5053854;28;20058;-83
2021/12/03 02:06:42;;;;;;;0.20;0.20;;;1.20;99.90;;;;;;5054439;28;20025;-84
2021/12/03 02:09:08;;;;;;;0.00;0.00;;;1.20;99.90;;;;;;5053830;28;20484;-83
2021/12/03 02:11:35;;;;;;;0.00;0.00;;;1.40;99.90;;;;;;5053041;28;20076;-84
2021/12/03 02:14:01;;;;;;;0.00;0.00;;;1.40;99.90;;;;;;5053976;28;20116;-83
2021/12/03 02:16:27;;;;;;;0.22;0.08;;;1.40;99.90;;;;;;5053831;28;20480;-84
2021/12/03 02:18:53;;;;;;;0.20;0.20;;;1.40;99.90;;;;;;5053793;28;20079;-83
2021/12/03 02:21:20;;;;;;;0.00;0.00;;;1.40;99.90;;;;;;5054151;28;20060;-83
2021/12/03 02:23:46;;;;;;;0.47;0.47;;;1.40;99.90;;;;;;5053701;28;20059;-83
2021/12/03 02:26:13;;;;;;;0.03;0.03;;;1.30;99.90;;;;;;5053772;28;20083;-83
2021/12/03 02:28:46;;;;;;;0.00;0.00;;;1.30;99.90;;;;;;5054070;28;20063;-83
2021/12/03 02:31:14;;;;;;;0.03;0.03;;;1.30;99.90;;;;;;5053926;28;20502;-84
2021/12/03 02:33:41;;;;;;;1.08;0.52;;;1.30;99.90;;;;;;5053055;28;20033;-83
2021/12/03 02:36:07;;;;;;;0.88;0.88;;;1.30;99.90;;;;;;5053848;28;20021;-84
2021/12/03 02:38:34;;;;;;;0.05;0.05;;;1.30;99.90;;;;;;5053635;28;20437;-83
2021/12/03 02:41:00;;;;;;;0.55;0.55;;;1.30;99.90;;;;;;5035206;28;20026;-83
2021/12/03 02:43:26;;;;;;;0.93;0.57;;;1.30;99.90;;;;;;5033657;28;20025;-83
2021/12/03 02:45:53;;;;;;;0.10;0.10;;;1.40;99.90;;;;;;5032419;28;20428;-83
2021/12/03 02:48:20;;;;;;;0.88;0.80;;;1.40;99.90;;;;;;5033530;28;20037;-83
2021/12/03 02:50:46;;;;;;;0.20;0.20;;;1.30;99.90;;;;;;5033780;28;20400;-84
2021/12/03 02:53:12;;;;;;;0.63;0.63;;;1.30;99.90;;;;;;5033178;28;20040;-83
2021/12/03 02:55:38;;;;;;;0.00;0.00;;;1.30;99.90;;;;;;5033668;28;20025;-84
2021/12/03 02:58:04;;;;;;;0.03;0.03;;;1.30;99.90;;;;;;5038045;28;20033;-83
2021/12/03 03:00:30;;;;;;;0.00;0.00;;;1.30;99.90;;;;;;5053073;28;20017;-84
2021/12/03 03:02:59;;;;;;;0.00;0.00;;;1.30;99.90;;;;;;5053573;28;20108;-83
2021/12/03 03:05:27;;;;;;;0.10;0.10;;;1.30;99.90;;;;;;5051900;28;20051;-84
2021/12/03 03:07:53;;;;;;;0.00;0.00;;;1.30;99.90;;;;;;5051564;28;20059;-83
2021/12/03 03:10:28;;;;;;;0.00;0.00;;;1.30;99.90;;;;;;5052953;28;20028;-84
2021/12/03 03:12:54;;;;;;;0.00;0.00;;;1.30;99.90;;;;;;5051702;28;20044;-84
2021/12/03 03:15:20;;;;;;;0.35;0.35;;;1.40;99.90;;;;;;5052896;28;20415;-83
2021/12/03 03:17:46;;;;;;;0.65;0.63;;;1.40;99.90;;;;;;5052753;28;20017;-83
2021/12/03 03:20:13;;;;;;;0.03;0.03;;;1.40;99.90;;;;;;5052691;28;20017;-84
2021/12/03 03:22:41;;;;;;;0.70;0.70;;;1.50;99.90;;;;;;5052904;28;20032;-83
2021/12/03 03:25:09;;;;;;;0.90;0.45;;;1.60;99.90;;;;;;5052733;28;20047;-83
2021/12/03 03:27:36;;;;;;;0.00;0.00;;;1.60;99.90;;;;;;5052791;28;20101;-83
2021/12/03 03:30:03;;;;;;;0.08;0.08;;;1.70;99.90;;;;;;5052794;28;20064;-84
2021/12/03 03:32:28;;;;;;;0.15;0.15;;;1.70;99.90;;;;;;5051195;28;20491;-83
2021/12/03 03:34:54;;;;;;;0.63;0.45;;;1.70;99.90;;;;;;5052215;28;20151;-83
2021/12/03 03:37:21;;;;;;;0.00;0.00;;;1.70;99.90;;;;;;5052538;28;20551;-84
2021/12/03 03:39:47;;;;;;;0.10;0.10;;;1.80;99.90;;;;;;5044345;28;20096;-83
2021/12/03 03:42:14;;;;;;;3.75;1.65;;;1.90;99.90;;;;;;5032360;28;20072;-83
2021/12/03 03:44:40;;;;;;;0.80;0.68;;;1.90;99.90;;;;;;5032761;28;20018;-83
2021/12/03 03:47:07;;;;;;;0.65;0.50;;;2.00;99.90;;;;;;5031847;28;20504;-83
2021/12/03 03:49:33;;;;;;;0.40;0.40;;;2.10;99.90;;;;;;5032572;28;20463;-84
2021/12/03 03:52:01;;;;;;;0.00;0.00;;;2.00;99.90;;;;;;5032795;28;20116;-83
2021/12/03 03:54:27;;;;;;;0.28;0.28;;;2.10;99.90;;;;;;5032780;28;20036;-83
2021/12/03 03:56:53;;;;;;;0.00;0.00;;;2.10;99.90;;;;;;5032703;28;20076;-83
2021/12/03 03:59:19;;;;;;;0.20;0.20;;;2.20;99.90;;;;;;5048612;28;20022;-83
2021/12/03 04:01:49;;;;;;;0.47;0.47;;;2.20;99.90;;;;;;5050774;28;20075;-83
2021/12/03 04:04:15;;;;;;;1.60;1.30;;;2.20;99.90;;;;;;5052498;28;20706;-84
2021/12/03 04:06:42;;;;;;;0.00;0.00;;;2.20;99.90;;;;;;5052764;28;20096;-84
2021/12/03 04:09:09;;;;;;;0.22;0.22;;;2.30;99.90;;;;;;5052437;28;20047;-83
2021/12/03 04:11:35;;;;;;;0.43;0.43;;;2.30;99.90;;;;;;5051276;28;20032;-84
2021/12/03 04:14:01;;;;;;;4.07;1.40;;;2.30;99.90;;;;;;5052171;28;20043;-83
2021/12/03 04:16:26;;;;;;;1.33;0.30;;;2.30;99.90;;;;;;5052572;28;20423;-84
2021/12/03 04:18:53;;;;;;;0.00;0.00;;;2.30;99.90;;;;;;5052024;28;20021;-83
2021/12/03 04:21:19;;;;;;;0.05;0.05;;;2.30;99.90;;;;;;5052504;28;20064;-83
2021/12/03 04:23:45;;;;;;;0.08;0.08;;;2.50;99.90;;;;;;5054112;28;20076;-84
2021/12/03 04:26:11;;;;;;;0.03;0.03;;;2.50;99.90;;;;;;5055845;28;20110;-83
2021/12/03 04:28:36;;;;;;;0.00;0.00;;;2.60;99.90;;;;;;5056374;28;20098;-83
2021/12/03 04:31:03;;;;;;;0.20;0.20;;;2.60;99.90;;;;;;5055050;28;20025;-84
2021/12/03 04:33:30;;;;;;;0.05;0.05;;;2.60;99.90;;;;;;5056164;28;20044;-83
2021/12/03 04:35:55;;;;;;;0.63;0.63;;;2.70;99.90;;;;;;5056046;28;20051;-83
2021/12/03 04:38:22;;;;;;;0.08;0.08;;;2.70;99.90;;;;;;5056201;28;20029;-84
2021/12/03 04:40:48;;;;;;;0.25;0.22;;;2.80;99.90;;;;;;5038985;28;20048;-83
2021/12/03 04:43:14;;;;;;;0.38;0.10;;;2.90;99.90;;;;;;5036008;28;20021;-83
2021/12/03 04:45:40;;;;;;;0.00;0.00;;;2.80;99.90;;;;;;5035816;28;20135;-83
2021/12/03 04:48:06;;;;;;;1.65;0.45;;;2.90;99.90;;;;;;5034514;28;20105;-83
2021/12/03 04:50:36;;;;;;;0.60;0.60;;;2.90;99.90;;;;;;5036041;28;20400;-83
2021/12/03 04:53:03;;;;;;;0.63;0.63;;;2.80;99.90;;;;;;5035601;28;20017;-84
2021/12/03 04:55:29;;;;;;;1.80;1.65;;;2.60;99.90;;;;;;5035984;28;20037;-83
2021/12/03 04:57:56;;;;;;;0.10;0.10;;;2.50;99.90;;;;;;5034624;28;20017;-84
2021/12/03 05:00:32;;;;;;;0.22;0.22;;;2.40;99.90;;;;;;5035257;28;20061;-83
2021/12/03 05:03:00;;;;;;;0.52;0.52;;;2.40;99.90;;;;;;5035593;28;20075;-83
2021/12/03 05:05:30;;;;;;;0.10;0.10;;;2.40;99.90;;;;;;5035497;28;20025;-83
2021/12/03 05:07:58;;;;;;;0.08;0.08;;;2.30;99.90;;;;;;5034403;28;20063;-83
2021/12/03 05:10:29;;;;;;;2.50;0.40;;;2.40;99.90;;;;;;5035205;28;20037;-83
2021/12/03 05:13:01;;;;;;;0.20;0.20;;;2.40;99.90;;;;;;5035408;28;20079;-83
2021/12/03 05:15:30;;;;;;;0.40;0.32;;;2.40;99.90;;;;;;5035395;28;20026;-83
2021/12/03 05:17:56;;;;;;;0.05;0.05;;;2.40;99.90;;;;;;5035292;28;20022;-83
2021/12/03 05:20:22;;;;;;;0.00;0.00;;;2.40;99.90;;;;;;5035693;28;20084;-83
2021/12/03 05:22:48;;;;;;;0.00;0.00;;;2.40;99.90;;;;;;5035701;28;20120;-83
2021/12/03 05:25:14;;;;;;;0.00;0.00;;;2.40;99.90;;;;;;5040195;28;20397;-83
2021/12/03 05:27:40;;;;;;;0.45;0.45;;;2.40;99.90;;;;;;5055352;28;20029;-83
2021/12/03 05:30:07;;;;;;;0.55;0.55;;;2.40;99.90;;;;;;5054846;28;20029;-83
2021/12/03 05:32:34;;;;;;;0.17;0.17;;;2.40;99.90;;;;;;5055080;28;20021;-83
2021/12/03 05:34:59;;;;;;;0.40;0.08;;;2.40;99.90;;;;;;5052522;28;20071;-83
2021/12/03 05:37:25;;;;;;;0.43;0.43;;;2.50;99.90;;;;;;5055200;28;20025;-83
2021/12/03 05:39:51;;;;;;;0.00;0.00;;;2.50;99.90;;;;;;5050328;28;20022;-83
2021/12/03 05:42:16;;;;;;;0.00;0.00;;;2.50;99.90;;;;;;5050331;28;20034;-83
2021/12/03 05:44:42;;;;;;;0.30;0.30;;;2.50;99.90;;;;;;5035201;28;20025;-84
2021/12/03 05:47:11;;;;;;;0.00;0.00;;;2.60;99.90;;;;;;5033908;28;20029;-83
2021/12/03 05:49:36;;;;;;;0.20;0.20;;;2.60;99.90;;;;;;5034867;28;20029;-83
2021/12/03 05:52:02;;;;;;;1.42;1.00;;;2.60;99.90;;;;;;5034697;28;20418;-83
2021/12/03 05:54:29;;;;;;;0.30;0.30;;;2.60;99.90;;;;;;5034815;28;20100;-84
2021/12/03 05:56:54;;;;;;;0.00;0.00;;;2.60;99.90;;;;;;5034818;28;20029;-84
2021/12/03 05:59:20;;;;;;;0.30;0.30;;;2.60;99.90;;;;;;5050511;28;20047;-84
2021/12/03 06:01:46;;;;;;;0.00;0.00;;;2.60;99.90;;;;;;5054350;28;20492;-84
2021/12/03 06:04:12;;;;;;;0.03;0.03;;;2.60;99.90;;;;;;5054455;28;20053;-84
2021/12/03 06:06:38;;;;;;;3.42;0.98;;;2.70;99.90;;;;;;5054663;28;20028;-83
2021/12/03 06:09:04;;;;;;;0.00;0.00;;;2.80;99.90;;;;;;5054163;28;20399;-84
2021/12/03 06:11:30;;;;;;;0.00;0.00;;;2.80;99.90;;;;;;5053093;28;20036;-83
2021/12/03 06:13:56;;;;;;;0.00;0.00;;;2.80;99.90;;;;;;5054125;28;20057;-83
2021/12/03 06:16:22;;;;;;;0.25;0.22;;;2.90;99.90;;;;;;5054222;28;20068;-83
2021/12/03 06:18:48;;;;;;;0.00;0.00;;;2.90;99.90;;;;;;5054140;28;20025;-84
2021/12/03 06:21:14;;;;;;;0.60;0.60;;;3.00;99.90;;;;;;5052910;28;20028;-83
2021/12/03 06:23:40;;;;;;;0.50;0.50;;;3.00;99.90;;;;;;5053944;28;20024;-84
2021/12/03 06:26:08;;;;;;;0.00;0.00;;;3.00;99.90;;;;;;5054002;28;20512;-83
2021/12/03 06:28:36;;;;;;;0.00;0.00;;;2.90;99.90;;;;;;5054074;28;20395;-84
2021/12/03 06:31:01;;;;;;;0.00;0.00;;;2.90;99.90;;;;;;5054130;28;20025;-84
2021/12/03 06:33:27;;;;;;;1.67;1.55;;;3.00;99.90;;;;;;5053201;28;20071;-84
2021/12/03 06:35:53;;;;;;;0.22;0.22;;;3.00;99.90;;;;;;5050868;28;20464;-84
2021/12/03 06:38:19;;;;;;;0.00;0.00;;;3.10;99.90;;;;;;5053332;28;20036;-84
2021/12/03 06:40:46;;;;;;;0.00;0.00;;;3.10;99.90;;;;;;5053495;28;20033;-84
2021/12/03 06:43:12;;;;;;;0.00;0.00;;;3.20;99.90;;;;;;5053399;28;20057;-83
2021/12/03 06:45:38;;;;;;;0.00;0.00;;;3.20;99.90;;;;;;5051736;28;20090;-83
2021/12/03 06:48:05;;;;;;;0.88;0.52;;;3.10;99.90;;;;;;5051909;28;20029;-82
2021/12/03 06:50:32;;;;;;;0.17;0.17;;;3.10;99.90;;;;;;5053260;28;20078;-83
2021/12/03 06:53:17;;;;;;;0.00;0.00;;;3.10;99.90;;;;;;5050811;28;20029;-82
2021/12/03 06:55:55;;;;;;;0.00;0.00;;;3.10;99.90;;;;;;5046965;28;20069;-82
2021/12/03 06:58:22;;;;;;;0.00;0.00;;;3.10;99.90;;;;;;5047993;28;20024;-83
2021/12/03 07:00:53;;;;;;;0.17;0.17;;;3.10;99.90;;;;;;5051179;28;20087;-82
2021/12/03 07:03:19;;;;;;;0.00;0.00;;;3.10;99.90;;;;;;5049473;28;20029;-82
2021/12/03 07:05:45;;;;;;;0.20;0.20;;;3.10;99.90;;;;;;5048428;28;20033;-82
2021/12/03 07:08:11;;;;;;;0.75;0.57;;;3.10;99.90;;;;;;5051781;28;20037;-83
2021/12/03 07:10:37;;;;;;;0.38;0.38;;;3.10;99.90;;;;;;5050216;28;20036;-84
2021/12/03 07:13:03;;;;;;;0.10;0.10;;;3.10;99.90;;;;;;5051245;28;20021;-84
2021/12/03 07:15:29;;;;;;;0.10;0.10;;;3.20;99.90;;;;;;5050145;28;20059;-85
2021/12/03 07:17:54;;;;;;;0.32;0.32;;;3.10;99.90;;;;;;5049144;28;20480;-85
2021/12/03 07:20:23;;;;;;;1.42;0.22;;;3.20;99.90;;;;;;5049090;28;20029;-85
2021/12/03 07:22:49;;;;;;;0.00;0.00;;;3.20;99.90;;;;;;5052193;28;20071;-85
2021/12/03 07:25:15;;;;;;;0.00;0.00;;;3.20;99.90;;;;;;5050252;28;20029;-86
2021/12/03 07:27:41;;;;;;;0.22;0.22;;;3.30;99.90;;;;;;5047868;28;20570;-86
2021/12/03 07:30:09;;;;;;;0.00;0.00;;;3.30;99.90;;;;;;5047206;28;20380;-86
2021/12/03 07:32:35;;;;;;;0.00;0.00;;;3.40;99.90;;;;;;5048720;28;20089;-86
2021/12/03 07:35:01;;;;;;;0.10;0.10;;;3.40;99.90;;;;;;5048132;28;20132;-86
2021/12/03 07:37:27;;;;;;;1.17;0.20;;;3.50;99.90;;;;;;5049985;28;20078;-86
2021/12/03 07:39:53;;;;;;;0.00;0.00;;;3.60;99.90;;;;;;5051545;28;20033;-87
2021/12/03 07:42:19;;;;;;;0.00;0.00;;;3.60;99.90;;;;;;5050138;28;20032;-86
2021/12/03 07:44:45;;;;;;;0.47;0.47;;;3.70;99.90;;;;;;5049787;28;20029;-86
2021/12/03 07:47:10;;;;;;;0.00;0.00;;;3.80;99.90;;;;;;5049899;28;20077;-86
2021/12/03 07:49:39;;;;;;;0.22;0.22;;;3.90;99.90;;;;;;5048346;28;20458;-85
2021/12/03 07:52:04;;;;;;;0.00;0.00;;;3.90;99.90;;;;;;5049734;28;20021;-85
2021/12/03 07:54:30;;;;;;;0.40;0.30;;;4.00;99.90;;;;;;5051032;28;20498;-86
2021/12/03 07:56:56;;;;;;;0.00;0.00;;;4.10;99.90;;;;;;5049823;28;20036;-86
2021/12/03 07:59:22;;;;;;;0.00;0.00;;;4.20;99.90;;;;;;5044455;28;20048;-84
2021/12/03 08:01:47;;;;;;;0.00;0.00;;;4.20;99.90;;;;;;5046435;28;20024;-85
2021/12/03 08:04:14;;;;;;;0.00;0.00;;;4.20;99.90;;;;;;5044625;28;20121;-84
2021/12/03 08:06:41;;;;;;;0.00;0.00;;;4.30;99.90;;;;;;5042923;28;20056;-83
2021/12/03 08:09:08;;;;;;;0.13;0.13;;;4.30;99.90;;;;;;5043339;28;20036;-86
2021/12/03 08:11:36;;;;;;;0.17;0.17;;;4.40;99.90;;;;;;5048855;28;20106;-86
2021/12/03 08:14:01;;;;;;;0.30;0.30;;;4.40;99.90;;;;;;5046804;28;20037;-84
2021/12/03 08:16:27;;;;;;;0.00;0.00;;;4.50;99.90;;;;;;5048804;28;20142;-85
2021/12/03 08:18:53;;;;;;;0.08;0.08;;;4.60;99.90;;;;;;5048785;28;20108;-86
2021/12/03 08:21:18;;;;;;;0.00;0.00;;;4.60;99.90;;;;;;5049458;28;20064;-85
2021/12/03 08:23:44;;;;;;;0.00;0.00;;;4.70;99.90;;;;;;5043643;28;20112;-84
2021/12/03 08:26:10;;;;;;;0.00;0.00;;;4.80;99.90;;;;;;5043437;28;20060;-84
2021/12/03 08:28:35;;;;;;;0.47;0.28;;;4.80;99.90;;;;;;5046626;28;20029;-85
2021/12/03 08:31:01;;;;;;;0.00;0.00;;;4.90;99.90;;;;;;5049197;28;20508;-86
2021/12/03 08:33:27;;;;;;;0.10;0.10;;;4.90;99.90;;;;;;5048592;28;20036;-84
2021/12/03 08:35:53;;;;;;;0.08;0.08;;;4.90;99.90;;;;;;5048643;28;20025;-84
2021/12/03 08:38:19;;;;;;;0.25;0.25;;;5.00;99.90;;;;;;5048530;28;20033;-83
2021/12/03 08:40:44;;;;;;;0.08;0.08;;;5.00;99.90;;;;;;5045723;28;20078;-84
2021/12/03 08:43:10;;;;;;;0.00;0.00;;;5.00;99.90;;;;;;5048775;28;20029;-83
2021/12/03 08:45:37;;;;;;;0.10;0.10;;;5.10;99.90;;;;;;5048862;28;20040;-81
2021/12/03 08:48:05;;;;;;;1.35;0.95;;;5.10;99.90;;;;;;5048463;28;20021;-82
2021/12/03 08:50:35;;;;;;;0.00;0.00;;;5.20;99.90;;;;;;5048078;28;20053;-83
2021/12/03 08:54:48;;;;;;;0.28;0.28;;;5.20;99.90;;;;;;5048448;28;20025;-80
2021/12/03 08:56:04;;;;;;;0.30;0.30;;;5.30;99.90;;;;;;5048791;28;20021;-80
2021/12/03 08:58:29;;;;;;;0.22;0.22;;;5.40;99.90;;;;;;5047707;28;20468;-80
2021/12/03 09:00:55;;;;;;;0.00;0.00;;;5.40;99.90;;;;;;5048596;28;20039;-81
2021/12/03 09:03:21;;;;;;;0.00;0.00;;;5.50;99.90;;;;;;5049745;28;20033;-82
2021/12/03 09:05:47;;;;;;;0.00;0.00;;;5.50;99.90;;;;;;5046808;28;20055;-84
2021/12/03 09:08:13;;;;;;;0.20;0.20;;;5.60;99.90;;;;;;5049319;28;20484;-81
2021/12/03 09:10:40;;;;;;;0.00;0.00;;;5.60;99.90;;;;;;5051213;28;20031;-83
2021/12/03 09:13:06;;;;;;;0.00;0.00;;;5.70;99.90;;;;;;5051241;28;20396;-83
2021/12/03 09:15:44;;;;;;;0.00;0.00;;;5.70;99.90;;;;;;5053170;28;20021;-85
2021/12/03 09:23:29;;;;;;;0.57;0.57;;;5.90;99.90;;;;;;5051493;28;20121;-83
2021/12/03 09:26:05;;;;;;;0.30;0.30;;;6.00;99.90;;;;;;5050370;28;20531;-84
2021/12/03 09:28:32;;;;;;;0.00;0.00;;;6.00;99.90;;;;;;5044098;28;20113;-85
2021/12/03 09:30:57;;;;;;;0.00;0.00;;;6.00;99.90;;;;;;5051159;28;20025;-84
2021/12/03 09:33:27;;;;;;;1.13;0.73;;;6.10;99.90;;;;;;5050453;28;20029;-84
2021/12/03 09:35:56;;;;;;;0.10;0.10;;;6.20;99.90;;;;;;5051414;28;20025;-84
2021/12/03 09:38:22;;;;;;;0.00;0.00;;;6.30;99.90;;;;;;5049371;28;20061;-86
2021/12/03 09:40:48;;;;;;;0.00;0.00;;;6.30;99.90;;;;;;5051233;28;20025;-87
2021/12/03 09:43:14;;;;;;;0.00;0.00;;;6.40;99.90;;;;;;5052938;28;20472;-88
2021/12/03 09:45:47;;;;;;;0.00;0.00;;;6.40;99.90;;;;;;5051684;28;20404;-85
2021/12/03 09:48:28;;;;;;;0.20;0.20;;;6.50;99.90;;;;;;5051390;28;20040;-85
2021/12/03 09:50:54;;;;;;;0.20;0.20;;;6.50;99.90;;;;;;5039974;28;20143;-87
2021/12/03 09:53:46;;;;;;;5.60;0.80;;;6.50;99.90;;;;;;5049555;28;20067;-85
2021/12/03 09:56:12;;;;;;;0.00;0.00;;;6.60;99.90;;;;;;5048588;28;20909;-85
2021/12/03 10:01:34;;;;;;;0.43;0.43;;;6.50;99.90;;;;;;5047409;28;20395;-83
2021/12/03 10:04:42;;;;;;;0.00;0.00;;;6.40;99.90;;;;;;5051589;28;20029;-80
2021/12/03 10:34:02;;;;;;;0.00;0.00;;;6.50;99.90;;;;;;5045021;28;20036;-84
2021/12/03 10:45:15;;;;;;;0.00;0.00;;;6.40;99.90;;;;;;5049698;28;20074;-82
2021/12/03 11:15:53;;;;;;;0.00;0.00;;;7.00;99.90;;;;;;5049992;28;20071;-86
2021/12/03 11:18:57;;;;;;;0.00;0.00;;;7.00;99.90;;;;;;5050080;28;20048;-85
2021/12/03 11:39:16;;;;;;;0.28;0.28;;;7.60;99.90;;;;;;5049954;28;20039;-85
2021/12/03 12:40:56;;;;;;;1.13;0.98;;;9.80;99.90;;;;;;5046328;28;20033;-89
2021/12/03 14:38:36;;;;;;;0.00;0.00;;;11.70;99.90;;;;;;5023906;28;20037;-85
2021/12/03 14:41:11;;;;;;;0.00;0.00;;;11.70;99.90;;;;;;5048794;28;20511;-87
2021/12/03 14:55:01;;;;;;;0.00;0.00;;;11.90;99.90;;;;;;5052423;28;20021;-84
2021/12/03 14:57:29;;;;;;;0.00;0.00;;;11.90;99.90;;;;;;5044203;28;20068;-83
2021/12/03 15:02:58;;;;;;;0.00;0.00;;;12.10;99.90;;;;;;5046248;28;20112;-88
2021/12/03 15:08:49;;;;;;;0.10;0.10;;;12.10;99.90;;;;;;5050496;28;20079;-87
2021/12/03 15:34:19;;;;;;;0.00;0.00;;;12.00;99.90;;;;;;5051859;28;20119;-86
2021/12/03 15:39:44;;;;;;;0.00;0.00;;;12.00;99.90;;;;;;5051063;28;20106;-83
2021/12/03 16:04:35;;;;;;;0.25;0.25;;;12.10;99.90;;;;;;5032367;28;20052;-84
2021/12/03 16:07:54;;;;;;;0.90;0.90;;;12.20;99.90;;;;;;5032831;28;20030;-83
2021/12/03 16:16:54;;;;;;;0.28;0.28;;;12.40;99.90;;;;;;5052115;28;20028;-82
2021/12/03 16:25:14;;;;;;;0.43;0.43;;;12.40;99.90;;;;;;5050935;28;20540;-85
2021/12/03 16:46:52;;;;;;;0.30;0.30;;;12.20;99.90;;;;;;5056094;28;20117;-85
2021/12/03 16:51:54;;;;;;;0.10;0.10;;;12.20;99.90;;;;;;5035136;28;20040;-83
2021/12/03 16:54:28;;;;;;;14.32;2.20;;;12.10;99.90;;;;;;5033784;28;20026;-85
2021/12/03 16:56:55;;;;;;;0.10;0.10;;;12.10;99.90;;;;;;5035806;28;20022;-85
2021/12/03 16:59:22;;;;;;;4.85;1.27;;;12.20;99.90;;;;;;5051400;28;20099;-85
2021/12/03 17:57:09;;;;;;;3.30;1.45;;;12.40;99.90;;;;;;5054060;28;20025;-82
2021/12/03 17:59:46;;;;;;;3.10;1.25;;;12.40;99.90;;;;;;5054623;28;20020;-83
2021/12/03 18:02:20;;;;;;;1.10;1.00;;;12.40;99.90;;;;;;5054010;28;20501;-83
2021/12/03 18:56:01;;;;;;;8.15;2.90;;;12.20;99.90;;;;;;5052314;28;20021;-84
2021/12/03 18:58:28;;;;;;;3.17;0.43;;;12.10;99.90;;;;;;5053544;28;20021;-84
2021/12/03 19:00:56;;;;;;;0.00;0.00;;;12.20;99.90;;;;;;5051596;28;20040;-82
2021/12/03 19:04:02;;;;;;;1.45;1.00;;;12.20;99.90;;;;;;5053133;28;20471;-82
2021/12/03 19:11:07;;;;;;;2.83;1.88;;;12.10;99.90;;;;;;5051728;28;20033;-82
2021/12/03 19:13:39;;;;;;;1.20;1.08;;;12.20;99.90;;;;;;5053194;28;20033;-82
2021/12/03 19:16:09;;;;;;;0.00;0.00;;;12.20;99.90;;;;;;5053209;28;20476;-82
2021/12/03 19:18:35;;;;;;;0.17;0.17;;;12.10;99.90;;;;;;5053289;28;20027;-80
2021/12/03 19:21:06;;;;;;;5.57;1.45;;;12.20;99.90;;;;;;5053360;28;20040;-82
2021/12/03 19:23:33;;;;;;;0.00;0.00;;;12.20;99.90;;;;;;5053684;28;20025;-84
2021/12/03 19:25:58;;;;;;;0.22;0.22;;;12.10;99.90;;;;;;5053056;28;20135;-82
2021/12/03 19:28:24;;;;;;;0.70;0.70;;;12.10;99.90;;;;;;5042366;28;20457;-82
2021/12/03 19:30:50;;;;;;;0.32;0.32;;;12.10;99.90;;;;;;5033349;28;20036;-84
2021/12/03 19:33:15;;;;;;;0.00;0.00;;;12.00;99.90;;;;;;5033287;28;20120;-82
2021/12/03 19:35:41;;;;;;;0.05;0.05;;;12.10;99.90;;;;;;5032158;28;20033;-83
2021/12/03 19:38:08;;;;;;;0.98;0.47;;;12.10;99.90;;;;;;5033464;28;20029;-84
2021/12/03 19:40:37;;;;;;;0.93;0.85;;;12.10;99.90;;;;;;5033409;28;20037;-82
2021/12/03 19:43:09;;;;;;;0.25;0.25;;;12.00;99.90;;;;;;5032054;28;20536;-83
2021/12/03 19:45:43;;;;;;;0.17;0.17;;;12.10;99.90;;;;;;5033694;28;20024;-82
2021/12/03 19:48:13;;;;;;;1.60;1.27;;;12.20;99.90;;;;;;5032231;28;20038;-83
2021/12/03 19:50:42;;;;;;;0.90;0.50;;;12.10;99.90;;;;;;5033081;28;20152;-81
2021/12/03 19:53:17;;;;;;;0.25;0.25;;;12.20;99.90;;;;;;5032881;28;20037;-82
2021/12/03 19:55:44;;;;;;;2.72;0.88;;;12.20;99.90;;;;;;5032376;28;20100;-82
2021/12/03 19:58:13;;;;;;;0.15;0.15;;;12.20;99.90;;;;;;5037739;28;20395;-83
2021/12/03 20:00:39;;;;;;;6.28;0.73;;;12.20;99.90;;;;;;5051366;28;20048;-83
2021/12/03 20:03:05;;;;;;;4.85;3.30;;;12.20;99.90;;;;;;5052770;28;20108;-83
2021/12/03 20:05:31;;;;;;;1.15;1.15;;;12.20;99.90;;;;;;5052527;28;20044;-83
2021/12/03 20:07:59;;;;;;;5.93;2.28;;;12.30;99.90;;;;;;5052644;28;20114;-84
2021/12/03 20:10:26;;;;;;;0.05;0.05;;;12.30;99.90;;;;;;5053306;28;20076;-83
2021/12/03 20:12:53;;;;;;;0.32;0.32;;;12.30;99.90;;;;;;5052973;28;20040;-82
2021/12/03 20:15:26;;;;;;;1.60;0.90;;;12.30;99.90;;;;;;5052652;28;20029;-82
2021/12/03 20:18:08;;;;;;;3.20;1.60;;;12.40;99.90;;;;;;5053027;28;20543;-82
2021/12/03 20:20:34;;;;;;;0.60;0.33;;;12.40;99.90;;;;;;5053285;28;20017;-80
2021/12/03 20:23:24;;;;;;;0.00;0.00;;;12.40;99.90;;;;;;5052706;28;20402;-83
2021/12/03 20:26:09;;;;;;;0.20;0.20;;;12.40;99.90;;;;;;5053429;28;20128;-82
2021/12/03 20:29:37;;;;;;;0.00;0.00;;;12.40;99.90;;;;;;5040479;28;20100;-83
2021/12/03 20:31:34;;;;;;;0.00;0.00;;;12.40;99.90;;;;;;5031961;28;20042;-84
2021/12/03 20:39:01;;;;;;;2.50;1.45;;;12.30;99.90;;;;;;5033554;28;20029;-83
2021/12/03 20:41:36;;;;;;;0.00;0.00;;;12.30;99.90;;;;;;5033058;28;20024;-84
2021/12/03 20:44:35;;;;;;;0.30;0.30;;;12.30;99.90;;;;;;5033141;28;20057;-83
2021/12/03 20:47:21;;;;;;;0.73;0.32;;;12.30;99.90;;;;;;5032774;28;20037;-82
2021/12/03 20:50:05;;;;;;;0.68;0.68;;;12.30;99.90;;;;;;5034255;28;20455;-85
2021/12/03 20:52:44;;;;;;;0.88;0.65;;;12.30;99.90;;;;;;5033201;28;20029;-84
2021/12/03 21:08:36;;;;;;;3.03;0.90;;;12.30;99.90;;;;;;5054185;28;20040;-83
2021/12/03 21:11:08;;;;;;;1.88;0.82;;;12.40;99.90;;;;;;5055805;28;20498;-83
2021/12/03 21:13:37;;;;;;;0.00;0.00;;;12.30;99.90;;;;;;5056811;28;20055;-83
2021/12/03 21:19:06;;;;;;;0.00;0.00;;;12.30;99.90;;;;;;5056416;28;20096;-82